KIPT/IPT METAR and TAF weather

Enter ICAO airport designator
Station Type Date Time Source
KIPT METAR 2021/07/29 02:54 UTC NOAA

KIPT 290254Z AUTO 26003KT 10SM CLR 19/14 A3003 RMK AO2 SLP166 T01890144 51015


Station Type Date Time Source
KIPT Decoded METAR 2021/07/29 02:54 UTC NOAA

WILLIAMSPORT-LYCOMING COUNTY, PA, United States (KIPT) 41-15N 076-55W 164M
Jul 28, 2021 - 10:54 PM EDT / 2021.07.29 0254 UTC
Wind: from the W (260 degrees) at 3 MPH (3 KT):0
Visibility: 10 mile(s):0
Sky conditions: clear
Temperature: 66.0 F (18.9 C)
Dew Point: 57.9 F (14.4 C)
Relative Humidity: 75%
Pressure (altimeter): 30.03 in. Hg (1016 hPa)
Pressure tendency: 0.04 inches (1.5 hPa) higher than three hours ago
ob: KIPT 290254Z AUTO 26003KT 10SM CLR 19/14 A3003 RMK AO2 SLP166 T01890144 51015
cycle: 3

Station Type Date Time Source
KIPT TAF 2021/07/29 03:06 UTC NOAA

TAF
AMD KIPT 290304Z 2903/2924 19004KT P6SM SCT050
FM291200 VRB03KT P6SM OVC100
FM291700 14003KT P6SM OVC050
FM291800 02004KT 4SM -RA OVC050

Example: see airport list